createdAt,value
2022-10-23T00:00:09.558Z,86.33
2022-10-23T00:02:36.092Z,86.17
2022-10-23T00:05:02.830Z,85.98
2022-10-23T00:09:57.302Z,85.76
2022-10-23T00:12:23.834Z,85.79
2022-10-23T00:14:50.307Z,85.70
2022-10-23T00:17:16.812Z,85.82
2022-10-23T00:19:43.302Z,86.11
2022-10-23T00:22:09.820Z,86.28
2022-10-23T00:24:36.339Z,86.63
2022-10-23T00:27:04.225Z,86.42
2022-10-23T00:29:30.739Z,86.62
2022-10-23T00:31:57.233Z,86.47
2022-10-23T00:34:23.664Z,86.68
2022-10-23T00:36:50.218Z,86.66
2022-10-23T00:39:16.772Z,86.36
2022-10-23T00:41:43.311Z,86.47
2022-10-23T00:44:49.787Z,86.54
2022-10-23T00:47:17.132Z,86.46
2022-10-23T00:49:43.753Z,86.70
2022-10-23T00:52:13.079Z,86.37
2022-10-23T00:54:42.110Z,86.25
2022-10-23T00:57:12.690Z,86.37
2022-10-23T00:59:41.455Z,85.92
2022-10-23T01:02:08.331Z,86.21
2022-10-23T01:04:36.189Z,86.04
2022-10-23T01:07:09.190Z,85.90
2022-10-23T01:09:40.889Z,85.49
2022-10-23T01:12:13.392Z,85.49
2022-10-23T01:14:50.689Z,85.34
2022-10-23T01:17:24.860Z,85.17
2022-10-23T01:20:01.278Z,85.41
2022-10-23T01:22:42.846Z,85.00
2022-10-23T01:25:23.637Z,84.73
2022-10-23T01:27:55.992Z,84.77
2022-10-23T01:30:22.601Z,84.76
2022-10-23T01:32:53.881Z,84.64
2022-10-23T01:35:24.192Z,84.55
2022-10-23T01:37:55.553Z,84.49
2022-10-23T01:40:25.408Z,84.51
2022-10-23T01:42:57.262Z,84.33
2022-10-23T01:45:28.075Z,84.30
2022-10-23T01:47:56.457Z,83.92
2022-10-23T01:50:24.956Z,83.88
2022-10-23T01:52:51.754Z,83.98
2022-10-23T01:55:18.559Z,83.65
2022-10-23T01:57:47.461Z,83.92
2022-10-23T02:00:17.936Z,83.88
2022-10-23T02:02:46.083Z,83.65
2022-10-23T02:05:17.187Z,83.93
2022-10-23T02:07:44.935Z,83.94
2022-10-23T02:10:13.639Z,83.81
2022-10-23T02:12:50.031Z,84.04
2022-10-23T02:15:25.627Z,84.06
2022-10-23T02:18:02.399Z,84.12
2022-10-23T02:20:38.326Z,84.06
2022-10-23T02:23:14.235Z,83.94
2022-10-23T02:25:48.030Z,84.07
2022-10-23T02:28:19.785Z,83.85
2022-10-23T02:30:50.125Z,83.86
2022-10-23T02:33:17.728Z,83.94
2022-10-23T02:35:44.672Z,84.00
2022-10-23T02:38:33.968Z,83.79
2022-10-23T02:41:10.859Z,83.88
2022-10-23T02:43:43.511Z,83.67
2022-10-23T02:46:28.976Z,83.68
2022-10-23T02:49:04.366Z,83.71
2022-10-23T02:51:39.178Z,83.52
2022-10-23T02:54:12.172Z,83.23
2022-10-23T02:56:44.253Z,83.21
2022-10-23T02:59:18.811Z,83.25
2022-10-23T03:01:50.742Z,83.20
2022-10-23T03:04:19.637Z,82.79
2022-10-23T03:06:46.710Z,82.99
2022-10-23T03:09:13.198Z,82.85
2022-10-23T03:11:39.728Z,82.87
2022-10-23T03:14:06.729Z,82.87
2022-10-23T03:16:33.247Z,82.68
2022-10-23T03:19:01.099Z,82.47
2022-10-23T03:21:27.756Z,82.77
2022-10-23T03:23:54.234Z,82.53
2022-10-23T03:26:20.806Z,82.54
2022-10-23T03:28:47.341Z,82.72
2022-10-23T03:31:13.881Z,83.14
2022-10-23T03:33:40.408Z,83.07
2022-10-23T03:36:09.419Z,82.85
2022-10-23T03:38:36.246Z,82.51
2022-10-23T03:41:02.778Z,82.58
2022-10-23T03:43:29.264Z,82.50
2022-10-23T03:45:55.943Z,82.71
2022-10-23T03:48:22.443Z,82.58
2022-10-23T03:50:48.962Z,82.58
2022-10-23T03:53:16.794Z,82.21
2022-10-23T03:55:44.230Z,82.32
2022-10-23T03:58:10.796Z,82.03
2022-10-23T04:00:37.312Z,81.97
2022-10-23T04:03:03.979Z,81.99
2022-10-23T04:05:30.559Z,82.31
2022-10-23T04:07:57.252Z,82.23
2022-10-23T04:10:25.141Z,81.98
2022-10-23T04:12:51.725Z,82.08
2022-10-23T04:15:18.271Z,81.81
2022-10-23T04:17:44.816Z,82.05
2022-10-23T04:20:11.360Z,82.74
2022-10-23T04:22:37.886Z,82.82
2022-10-23T04:25:04.933Z,82.34
2022-10-23T04:27:32.896Z,82.25
2022-10-23T04:29:59.358Z,82.05
2022-10-23T04:32:25.997Z,81.76
2022-10-23T04:34:52.510Z,81.99
2022-10-23T04:37:19.189Z,81.83
2022-10-23T04:39:45.623Z,81.42
2022-10-23T04:42:12.148Z,81.12
2022-10-23T04:44:39.992Z,81.49
2022-10-23T04:47:06.513Z,81.65
2022-10-23T04:49:32.954Z,81.46
2022-10-23T04:51:59.554Z,81.61
2022-10-23T04:54:26.063Z,81.76
2022-10-23T04:56:52.571Z,81.26
2022-10-23T04:59:19.049Z,81.32
2022-10-23T05:01:46.908Z,81.07
2022-10-23T05:04:13.442Z,81.40
2022-10-23T05:06:39.965Z,82.22
2022-10-23T05:09:06.490Z,81.72
2022-10-23T05:11:32.936Z,81.93
2022-10-23T05:13:59.406Z,82.04
2022-10-23T05:16:37.737Z,81.74
2022-10-23T05:19:09.114Z,81.90
2022-10-23T05:21:36.028Z,82.09
2022-10-23T05:24:02.608Z,82.11
2022-10-23T05:26:30.672Z,82.11
2022-10-23T05:28:57.207Z,82.15
2022-10-23T05:31:25.224Z,82.09
2022-10-23T05:33:52.608Z,81.99
2022-10-23T05:36:21.919Z,81.52
2022-10-23T05:42:26.001Z,82.56
2022-10-23T05:44:52.512Z,82.39
2022-10-23T05:47:19.021Z,82.12
2022-10-23T05:49:45.533Z,82.13
2022-10-23T05:52:14.030Z,82.12
2022-10-23T05:54:40.979Z,81.82
2022-10-23T05:57:07.798Z,82.72
2022-10-23T05:59:34.415Z,82.53
2022-10-23T06:02:01.130Z,82.01
2022-10-23T06:04:28.038Z,81.77
2022-10-23T06:06:54.603Z,82.04
2022-10-23T06:09:22.564Z,82.15
2022-10-23T06:11:49.068Z,82.41
2022-10-23T06:14:15.573Z,82.17
2022-10-23T06:16:42.025Z,82.40
2022-10-23T06:19:10.066Z,82.37
2022-10-23T06:21:36.635Z,82.40
2022-10-23T06:24:03.922Z,82.54
2022-10-23T06:26:31.786Z,82.85
2022-10-23T06:28:58.744Z,83.24
2022-10-23T06:31:25.305Z,82.72
2022-10-23T06:33:51.915Z,83.66
2022-10-23T06:36:18.793Z,83.40
2022-10-23T06:38:45.326Z,83.51
2022-10-23T06:41:14.275Z,83.66
2022-10-23T06:43:42.250Z,83.80
2022-10-23T06:46:08.816Z,83.80
2022-10-23T06:48:35.778Z,84.51
2022-10-23T06:51:06.315Z,85.78
2022-10-23T06:53:33.320Z,86.55
2022-10-23T06:56:00.313Z,86.85
2022-10-23T06:58:26.922Z,86.56
2022-10-23T07:00:55.338Z,86.49
2022-10-23T07:03:22.145Z,86.21
2022-10-23T07:05:48.668Z,86.42
2022-10-23T07:08:15.227Z,86.81
2022-10-23T07:10:41.914Z,86.98
2022-10-23T07:13:08.489Z,87.06
2022-10-23T07:15:35.954Z,87.12
2022-10-23T07:18:04.049Z,87.33
2022-10-23T07:20:30.818Z,87.90
2022-10-23T07:22:57.535Z,88.21
2022-10-23T07:25:26.251Z,88.81
2022-10-23T07:27:53.256Z,88.92
2022-10-23T07:30:19.714Z,89.02
2022-10-23T07:32:46.212Z,89.38
2022-10-23T07:37:42.006Z,89.55
2022-10-23T07:40:09.650Z,89.69
2022-10-23T07:42:36.175Z,89.76
2022-10-23T07:45:02.765Z,89.50
2022-10-23T07:47:29.296Z,89.55
2022-10-23T07:49:55.841Z,89.89
2022-10-23T07:52:23.817Z,89.86
2022-10-23T07:54:50.935Z,90.08
2022-10-23T07:57:17.705Z,89.93
2022-10-23T07:59:44.199Z,89.88
2022-10-23T08:02:12.017Z,90.10
2022-10-23T08:04:38.573Z,90.20
2022-10-23T08:07:05.007Z,89.97
2022-10-23T08:09:32.883Z,90.38
2022-10-23T08:11:59.343Z,90.04
2022-10-23T08:14:26.344Z,89.36
2022-10-23T08:16:53.021Z,89.90
2022-10-23T08:19:19.535Z,89.49
2022-10-23T08:21:46.070Z,89.64
2022-10-23T08:24:12.801Z,89.17
2022-10-23T08:26:40.993Z,89.37
2022-10-23T08:29:07.520Z,89.27
2022-10-23T08:31:34.036Z,89.24
2022-10-23T08:34:00.526Z,88.87
2022-10-23T08:36:28.505Z,88.99
2022-10-23T08:38:56.392Z,88.65
2022-10-23T08:41:26.028Z,88.31
2022-10-23T08:44:00.361Z,88.07
2022-10-23T08:46:31.161Z,88.06
2022-10-23T08:49:08.982Z,87.74
2022-10-23T08:51:40.884Z,87.71
2022-10-23T08:54:13.990Z,87.49
2022-10-23T09:03:38.386Z,87.14
2022-10-23T09:06:15.249Z,87.04
2022-10-23T09:08:52.439Z,86.95
2022-10-23T09:11:26.778Z,86.90
2022-10-23T09:14:20.135Z,87.31
2022-10-23T09:17:00.264Z,86.72
2022-10-23T09:19:28.176Z,86.50
2022-10-23T09:21:56.262Z,86.57
2022-10-23T09:24:25.529Z,86.66
2022-10-23T09:26:54.025Z,85.69
2022-10-23T09:29:25.972Z,85.68
2022-10-23T09:31:54.432Z,85.26
2022-10-23T09:34:23.690Z,85.14
2022-10-23T09:39:28.805Z,84.16
2022-10-23T09:41:57.043Z,83.93
2022-10-23T09:44:25.391Z,84.11
2022-10-23T09:46:54.023Z,83.50
2022-10-23T09:49:23.671Z,83.39
2022-10-23T09:52:00.002Z,83.22
2022-10-23T09:54:27.991Z,83.32
2022-10-23T09:56:55.907Z,82.85
2022-10-23T09:59:26.675Z,82.03
2022-10-23T10:01:55.949Z,81.88
2022-10-23T10:04:32.631Z,81.74
2022-10-23T10:07:03.631Z,81.70
2022-10-23T10:09:30.266Z,81.00
2022-10-23T10:12:10.379Z,81.36
2022-10-23T10:14:52.747Z,81.16
2022-10-23T10:17:30.322Z,80.98
2022-10-23T10:20:18.796Z,80.69
2022-10-23T10:22:52.805Z,80.90
2022-10-23T10:25:25.586Z,80.23
2022-10-23T10:28:01.778Z,79.94
2022-10-23T10:30:34.721Z,79.81
2022-10-23T10:33:09.308Z,80.00
2022-10-23T10:35:42.846Z,79.29
2022-10-23T10:38:29.888Z,78.82
2022-10-23T10:41:25.169Z,79.06
2022-10-23T10:44:03.190Z,78.99
2022-10-23T10:46:33.433Z,77.69
2022-10-23T10:49:06.281Z,78.45
2022-10-23T10:51:38.965Z,77.99
2022-10-23T10:54:19.459Z,77.37
2022-10-23T10:56:47.582Z,77.64
2022-10-23T10:59:20.799Z,77.85
2022-10-23T11:01:53.343Z,77.95
2022-10-23T11:04:30.630Z,78.75
2022-10-23T11:06:59.479Z,78.08
2022-10-23T11:09:29.162Z,78.07
2022-10-23T11:11:56.121Z,76.61
2022-10-23T11:14:24.892Z,76.19
2022-10-23T11:16:54.682Z,76.45
2022-10-23T11:19:25.448Z,75.95
2022-10-23T11:21:58.280Z,75.36
2022-10-23T11:25:02.804Z,75.44
2022-10-23T11:28:04.450Z,74.86
2022-10-23T11:30:40.659Z,73.18
2022-10-23T11:33:35.703Z,73.66
2022-10-23T11:36:11.889Z,72.94
2022-10-23T11:38:40.774Z,72.89
2022-10-23T11:41:22.282Z,71.76
2022-10-23T11:43:54.140Z,72.17
2022-10-23T11:46:31.566Z,72.49
2022-10-23T11:48:58.843Z,72.20
2022-10-23T11:51:27.765Z,71.99
2022-10-23T11:54:06.349Z,71.79
2022-10-23T11:56:34.376Z,71.87
2022-10-23T11:59:22.279Z,72.18
2022-10-23T12:01:51.754Z,71.24
2022-10-23T12:04:23.945Z,71.22
2022-10-23T12:06:53.948Z,70.87
2022-10-23T12:09:31.664Z,71.38
2022-10-23T12:12:13.656Z,71.61
2022-10-23T12:14:42.531Z,70.54
2022-10-23T12:17:29.222Z,70.55
2022-10-23T12:20:21.179Z,71.02
2022-10-23T12:22:58.586Z,70.28
2022-10-23T12:25:34.659Z,69.94
2022-10-23T12:28:12.139Z,69.48
2022-10-23T12:30:45.356Z,69.32
2022-10-23T12:33:20.636Z,68.95
2022-10-23T12:36:16.940Z,68.66
2022-10-23T12:38:45.695Z,68.49
2022-10-23T12:41:15.578Z,67.82
2022-10-23T12:43:50.266Z,68.11
2022-10-23T12:46:27.795Z,69.33
2022-10-23T12:48:55.401Z,69.95
2022-10-23T12:51:24.239Z,69.49
2022-10-23T12:53:50.899Z,68.94
2022-10-23T12:56:18.537Z,70.82
2022-10-23T12:58:49.715Z,70.89
2022-10-23T13:01:24.503Z,69.97
2022-10-23T13:03:52.344Z,70.68
2022-10-23T13:06:19.092Z,70.65
2022-10-23T13:08:47.870Z,69.63
2022-10-23T13:11:17.421Z,69.70
2022-10-23T13:13:44.155Z,70.04
2022-10-23T13:16:16.648Z,69.69
2022-10-23T13:18:43.473Z,69.57
2022-10-23T13:21:17.648Z,69.63
2022-10-23T13:23:44.246Z,70.40
2022-10-23T13:26:25.768Z,70.36
2022-10-23T13:28:52.770Z,70.62
2022-10-23T13:31:31.066Z,70.26
2022-10-23T13:34:18.752Z,69.54
2022-10-23T13:36:58.297Z,69.34
2022-10-23T13:39:27.140Z,69.38
2022-10-23T13:41:53.873Z,69.66
2022-10-23T13:44:23.376Z,70.61
2022-10-23T13:46:51.740Z,70.74
2022-10-23T13:49:18.924Z,69.57
2022-10-23T13:51:48.661Z,69.63
2022-10-23T13:54:18.128Z,70.17
2022-10-23T13:56:45.250Z,70.19
2022-10-23T13:59:11.950Z,69.96
2022-10-23T14:01:39.350Z,70.38
2022-10-23T14:04:08.178Z,70.37
2022-10-23T14:06:34.882Z,69.96
2022-10-23T14:09:01.346Z,69.57
2022-10-23T14:11:27.916Z,69.86
2022-10-23T14:13:54.471Z,69.71
2022-10-23T14:16:21.038Z,70.23
2022-10-23T14:18:47.877Z,70.39
2022-10-23T14:21:18.097Z,70.45
2022-10-23T14:23:44.612Z,70.96
2022-10-23T14:26:12.831Z,71.08
2022-10-23T14:28:39.604Z,70.60
2022-10-23T14:31:08.189Z,71.19
2022-10-23T14:33:34.766Z,70.74
2022-10-23T14:36:01.783Z,71.34
2022-10-23T14:38:30.047Z,71.46
2022-10-23T14:40:56.548Z,71.22
2022-10-23T14:43:24.426Z,71.11
2022-10-23T14:45:51.397Z,71.81
2022-10-23T14:48:18.203Z,72.16
2022-10-23T14:50:46.717Z,72.14
2022-10-23T14:53:13.554Z,71.88
2022-10-23T14:55:41.689Z,71.79
2022-10-23T14:58:08.368Z,72.33
2022-10-23T15:00:34.901Z,72.24
2022-10-23T15:03:01.493Z,72.41
2022-10-23T15:05:27.993Z,72.73
2022-10-23T15:07:55.410Z,72.96
2022-10-23T15:10:21.946Z,72.67
2022-10-23T15:12:49.846Z,72.81
2022-10-23T15:15:16.488Z,72.42
2022-10-23T15:17:42.984Z,72.80
2022-10-23T15:20:10.293Z,72.78
2022-10-23T15:22:37.166Z,72.79
2022-10-23T15:25:04.209Z,73.09
2022-10-23T15:27:30.651Z,73.28
2022-10-23T15:29:58.475Z,73.66
2022-10-23T15:32:25.104Z,73.88
2022-10-23T15:34:51.892Z,73.65
2022-10-23T15:37:18.372Z,73.73
2022-10-23T15:39:45.054Z,74.04
2022-10-23T15:42:11.637Z,74.46
2022-10-23T15:44:40.285Z,74.73
2022-10-23T15:47:08.546Z,74.61
2022-10-23T15:49:35.250Z,75.07
2022-10-23T15:52:01.765Z,75.41
2022-10-23T15:54:30.673Z,75.60
2022-10-23T15:56:59.809Z,75.61
2022-10-23T15:59:26.753Z,76.36
2022-10-23T16:01:53.430Z,76.67
2022-10-23T16:04:21.932Z,76.80
2022-10-23T16:06:48.684Z,76.87
2022-10-23T16:09:15.727Z,76.77
2022-10-23T16:11:43.507Z,77.41
2022-10-23T16:14:12.823Z,77.56
2022-10-23T16:16:39.327Z,77.81
2022-10-23T16:19:06.018Z,77.92
2022-10-23T16:21:35.977Z,78.16
2022-10-23T16:24:05.130Z,78.18
2022-10-23T16:26:32.190Z,78.52
2022-10-23T16:29:00.244Z,78.19
2022-10-23T16:31:27.166Z,78.23
2022-10-23T16:36:28.858Z,78.50
2022-10-23T16:38:56.823Z,78.64
2022-10-23T16:41:23.305Z,78.78
2022-10-23T16:43:49.953Z,78.82
2022-10-23T16:46:18.325Z,79.04
2022-10-23T16:48:45.780Z,78.83
2022-10-23T16:51:21.724Z,78.97
2022-10-23T16:53:48.790Z,79.20
2022-10-23T16:56:17.068Z,79.23
2022-10-23T16:58:44.363Z,79.41
2022-10-23T17:01:13.101Z,79.42
2022-10-23T17:03:41.705Z,79.31
2022-10-23T17:06:11.162Z,79.46
2022-10-23T17:08:39.511Z,79.22
2022-10-23T17:11:08.187Z,79.36
2022-10-23T17:13:35.911Z,79.48
2022-10-23T17:16:04.511Z,79.56
2022-10-23T17:18:31.136Z,79.65
2022-10-23T17:20:58.027Z,79.56
2022-10-23T17:23:24.696Z,79.79
2022-10-23T17:25:52.633Z,79.72
2022-10-23T17:28:19.174Z,79.70
2022-10-23T17:30:45.688Z,79.94
2022-10-23T17:33:12.383Z,79.96
2022-10-23T17:35:39.485Z,79.89
2022-10-23T17:38:06.261Z,79.99
2022-10-23T17:40:33.024Z,80.11
2022-10-23T17:43:01.216Z,80.04
2022-10-23T17:45:27.910Z,80.38
2022-10-23T17:47:54.370Z,80.25
2022-10-23T17:50:20.861Z,80.23
2022-10-23T17:52:47.426Z,80.59
2022-10-23T17:55:13.950Z,80.40
2022-10-23T17:57:40.792Z,80.38
2022-10-23T18:00:09.989Z,80.18
2022-10-23T18:02:36.578Z,80.13
2022-10-23T18:05:03.396Z,80.22
2022-10-23T18:07:29.904Z,80.23
2022-10-23T18:09:56.489Z,80.15
2022-10-23T18:12:23.138Z,79.99
2022-10-23T18:14:49.703Z,79.88
2022-10-23T18:17:17.564Z,80.01
2022-10-23T18:19:44.091Z,79.90
2022-10-23T18:22:10.631Z,79.65
2022-10-23T18:24:37.215Z,79.68
2022-10-23T18:27:03.841Z,79.85
2022-10-23T18:29:30.523Z,79.83
2022-10-23T18:31:56.984Z,79.76
2022-10-23T18:34:25.459Z,79.98
2022-10-23T18:36:53.706Z,79.91
2022-10-23T18:39:22.816Z,79.82
2022-10-23T18:41:51.380Z,80.05
2022-10-23T18:44:19.843Z,79.94
2022-10-23T18:46:47.715Z,79.86
2022-10-23T18:49:16.254Z,80.04
2022-10-23T18:51:44.438Z,80.05
2022-10-23T18:54:13.577Z,80.13
2022-10-23T18:56:40.617Z,80.09
2022-10-23T18:59:11.253Z,79.86
2022-10-23T19:01:37.848Z,79.96
2022-10-23T19:04:05.329Z,79.89
2022-10-23T19:06:32.640Z,79.88
2022-10-23T19:09:00.474Z,79.95
2022-10-23T19:11:28.330Z,79.90
2022-10-23T19:13:55.179Z,79.85
2022-10-23T19:16:25.370Z,79.74
2022-10-23T19:18:55.635Z,79.79
2022-10-23T19:21:24.379Z,79.96
2022-10-23T19:23:51.968Z,79.65
2022-10-23T19:26:19.868Z,79.57
2022-10-23T19:28:48.195Z,79.53
2022-10-23T19:31:14.865Z,79.52
2022-10-23T19:33:41.524Z,79.45
2022-10-23T19:36:12.675Z,79.33
2022-10-23T19:38:40.824Z,79.29
2022-10-23T19:41:07.774Z,79.35
2022-10-23T19:43:36.139Z,79.24
2022-10-23T19:46:06.335Z,79.16
2022-10-23T19:48:35.964Z,79.07
2022-10-23T19:51:02.537Z,79.27
2022-10-23T19:53:29.279Z,79.24
2022-10-23T19:56:01.798Z,79.15
2022-10-23T19:58:28.286Z,78.96
2022-10-23T20:00:56.226Z,79.04
2022-10-23T20:03:22.762Z,79.01
2022-10-23T20:05:49.752Z,79.34
2022-10-23T20:08:16.244Z,78.90
2022-10-23T20:10:44.250Z,78.99
2022-10-23T20:13:26.468Z,79.14
2022-10-23T20:15:53.121Z,79.19
2022-10-23T20:18:21.183Z,78.93
2022-10-23T20:20:47.698Z,78.89
2022-10-23T20:23:14.195Z,78.98
2022-10-23T20:25:40.761Z,78.85
2022-10-23T20:28:09.121Z,78.79
2022-10-23T20:30:40.167Z,78.73
2022-10-23T20:33:06.997Z,78.70
2022-10-23T20:35:38.950Z,78.64
2022-10-23T20:38:05.509Z,78.52
2022-10-23T20:40:32.324Z,78.74
2022-10-23T20:42:58.852Z,78.68
2022-10-23T20:45:25.338Z,78.79
2022-10-23T20:47:51.860Z,78.84
2022-10-23T20:50:18.485Z,78.90
2022-10-23T20:52:46.398Z,78.82
2022-10-23T20:55:12.886Z,78.47
2022-10-23T20:57:39.378Z,78.63
2022-10-23T21:00:07.277Z,78.84
2022-10-23T21:02:33.856Z,79.03
2022-10-23T21:05:00.433Z,79.06
2022-10-23T21:07:26.915Z,78.86
2022-10-23T21:09:54.742Z,78.89
2022-10-23T21:12:21.229Z,78.88
2022-10-23T21:14:47.754Z,78.82
2022-10-23T21:17:14.258Z,78.96
2022-10-23T21:19:40.738Z,79.08
2022-10-23T21:22:07.204Z,79.09
2022-10-23T21:24:33.841Z,79.05
2022-10-23T21:27:01.657Z,79.20
2022-10-23T21:29:28.141Z,79.26
2022-10-23T21:31:57.131Z,79.22
2022-10-23T21:34:24.538Z,79.49
2022-10-23T21:37:11.922Z,79.77
2022-10-23T21:39:37.817Z,80.01
2022-10-23T21:42:05.770Z,79.86
2022-10-23T21:44:32.644Z,80.07
2022-10-23T21:46:59.130Z,80.25
2022-10-23T21:49:25.689Z,80.23
2022-10-23T21:51:52.323Z,80.20
2022-10-23T21:54:18.843Z,80.32
2022-10-23T21:56:46.809Z,80.63
2022-10-23T21:59:17.812Z,80.68
2022-10-23T22:01:46.054Z,80.89
2022-10-23T22:04:14.388Z,80.85
2022-10-23T22:06:41.863Z,81.20
2022-10-23T22:09:08.682Z,81.50
2022-10-23T22:11:35.238Z,81.27
2022-10-23T22:14:01.762Z,81.30
2022-10-23T22:16:29.666Z,81.50
2022-10-23T22:18:56.510Z,81.33
2022-10-23T22:21:25.283Z,81.91
2022-10-23T22:23:54.723Z,81.98
2022-10-23T22:26:23.888Z,81.97
2022-10-23T22:28:51.868Z,82.15
2022-10-23T22:31:20.688Z,81.83
2022-10-23T22:33:48.882Z,82.13
2022-10-23T22:36:15.692Z,82.00
2022-10-23T22:38:42.805Z,82.40
2022-10-23T22:41:09.648Z,82.60
2022-10-23T22:43:36.369Z,82.87
2022-10-23T22:46:04.368Z,83.50
2022-10-23T22:48:30.894Z,83.91
2022-10-23T22:50:58.878Z,84.37
2022-10-23T22:53:25.469Z,84.86
2022-10-23T22:55:52.374Z,85.02
2022-10-23T22:58:18.923Z,85.37
2022-10-23T23:00:45.680Z,85.74
2022-10-23T23:03:12.256Z,86.10
2022-10-23T23:08:15.288Z,86.31
2022-10-23T23:10:41.940Z,86.19
2022-10-23T23:13:08.649Z,86.60
2022-10-23T23:15:39.078Z,86.60
2022-10-23T23:18:05.725Z,86.76
2022-10-23T23:20:32.267Z,86.84
2022-10-23T23:22:58.741Z,86.84
2022-10-23T23:25:26.665Z,86.70
2022-10-23T23:27:53.189Z,87.04
2022-10-23T23:30:19.714Z,86.85
2022-10-23T23:32:47.649Z,86.75
2022-10-23T23:35:14.341Z,86.70
2022-10-23T23:37:40.837Z,86.70
2022-10-23T23:40:08.530Z,86.80
2022-10-23T23:42:36.383Z,86.82
2022-10-23T23:45:14.179Z,86.60
2022-10-23T23:47:42.003Z,86.73
2022-10-23T23:50:10.973Z,86.95
2022-10-23T23:52:37.538Z,86.70
2022-10-23T23:55:05.137Z,87.04
2022-10-23T23:57:31.673Z,87.39
2022-10-23T23:59:59.706Z,87.05
